Alsey, Illinois
Current Conditions -  °F | °C
As of 2:15 PM on Saturday 25 Oct 2014 (Local Time) from KIJX Reporting Station
Clear Clear  
Wind Chill: 80°   Ceiling: Unl
Heat Index: 80°   Visibility: 10mi
Dew Point: 49°   Wind: 7mph
Humidity: 34%   Direction: 330°NNW
Pressure: 30.01"   Gusts: NA
Location:  39.56°N, 90.43°W
Report Text: KIJX 251915Z AUTO 33006KT 10SM CLR 27/10 A3001 RMK AO2 T02680096
Loading
Personal Weather Stations






























Interactive Weather Map
Tropical Storm Tracking
New forecast layout! Learn more

10-Day Weather Forecast

Advertisements
Track Severe Weather on mobile